sensor_id;sensor_type;location;lat;lon;timestamp;pressure;altitude;pressure_sealevel;temperature;humidity
62779;BME280;48821;48.796;2.396;2023-08-12T16:20:07;101614.66;;;21.53;67.10
62779;BME280;48821;48.796;2.396;2023-08-12T16:21:18;101613.84;;;21.66;66.28
62779;BME280;48821;48.796;2.396;2023-08-12T16:22:29;101614.56;;;21.83;66.35
62779;BME280;48821;48.796;2.396;2023-08-12T16:23:40;101609.16;;;21.97;66.15
62779;BME280;48821;48.796;2.396;2023-08-12T16:24:51;101614.19;;;22.15;65.50
62779;BME280;48821;48.796;2.396;2023-08-12T16:26:05;101610.34;;;22.32;65.47
62779;BME280;48821;48.796;2.396;2023-08-12T16:27:15;101613.03;;;22.45;64.64
62779;BME280;48821;48.796;2.396;2023-08-12T16:28:27;101613.91;;;22.59;64.24
62779;BME280;48821;48.796;2.396;2023-08-12T16:29:40;101612.06;;;22.73;63.37
62779;BME280;48821;48.796;2.396;2023-08-12T16:30:51;101610.31;;;22.85;62.42
62779;BME280;48821;48.796;2.396;2023-08-12T16:32:05;101600.53;;;22.97;62.08
62779;BME280;48821;48.796;2.396;2023-08-12T16:33:16;101603.31;;;23.08;62.10
62779;BME280;48821;48.796;2.396;2023-08-12T16:34:27;101607.03;;;23.19;61.73
62779;BME280;48821;48.796;2.396;2023-08-12T16:35:38;101611.81;;;23.26;61.33
62779;BME280;48821;48.796;2.396;2023-08-12T16:36:48;101604.94;;;23.35;60.62
62779;BME280;48821;48.796;2.396;2023-08-12T16:38:00;101607.03;;;23.43;60.89
62779;BME280;48821;48.796;2.396;2023-08-12T16:39:13;101601.09;;;23.51;60.80
62779;BME280;48821;48.796;2.396;2023-08-12T16:40:24;101606.91;;;23.58;60.04
62779;BME280;48821;48.796;2.396;2023-08-12T16:41:40;101609.97;;;23.65;59.87
62779;BME280;48821;48.796;2.396;2023-08-12T16:42:54;101615.72;;;23.71;59.03
62779;BME280;48821;48.796;2.396;2023-08-12T16:44:05;101608.16;;;23.77;59.43
62779;BME280;48821;48.796;2.396;2023-08-12T16:45:18;101612.22;;;23.82;59.15
62779;BME280;48821;48.796;2.396;2023-08-12T16:46:32;101604.69;;;23.88;58.74
62779;BME280;48821;48.796;2.396;2023-08-12T16:47:42;101608.69;;;23.93;58.37
62779;BME280;48821;48.796;2.396;2023-08-12T16:48:53;101608.34;;;23.98;58.18
62779;BME280;48821;48.796;2.396;2023-08-12T16:50:07;101607.16;;;24.02;57.79
62779;BME280;48821;48.796;2.396;2023-08-12T16:51:20;101614.94;;;24.05;58.37
62779;BME280;48821;48.796;2.396;2023-08-12T16:52:30;101613.00;;;24.08;57.26
62779;BME280;48821;48.796;2.396;2023-08-12T16:53:41;101612.78;;;24.11;57.80
62779;BME280;48821;48.796;2.396;2023-08-12T16:54:54;101614.34;;;24.13;57.48
62779;BME280;48821;48.796;2.396;2023-08-12T16:56:05;101614.13;;;24.16;57.90
62779;BME280;48821;48.796;2.396;2023-08-12T16:57:16;101613.03;;;24.19;57.08
62779;BME280;48821;48.796;2.396;2023-08-12T16:58:27;101609.25;;;24.22;56.89
62779;BME280;48821;48.796;2.396;2023-08-12T16:59:38;101607.19;;;24.25;56.88
62779;BME280;48821;48.796;2.396;2023-08-12T17:00:51;101603.56;;;24.26;56.18
62779;BME280;48821;48.796;2.396;2023-08-12T17:02:04;101613.22;;;24.29;55.68
62779;BME280;48821;48.796;2.396;2023-08-12T17:03:18;101613.81;;;24.33;55.30
62779;BME280;48821;48.796;2.396;2023-08-12T17:04:31;101608.34;;;24.34;55.56
62779;BME280;48821;48.796;2.396;2023-08-12T17:05:44;101612.59;;;24.37;55.68
62779;BME280;48821;48.796;2.396;2023-08-12T17:06:57;101609.94;;;24.37;55.40
62779;BME280;48821;48.796;2.396;2023-08-12T17:08:07;101613.34;;;24.39;55.42
62779;BME280;48821;48.796;2.396;2023-08-12T17:09:19;101604.28;;;24.40;55.05
62779;BME280;48821;48.796;2.396;2023-08-12T17:10:37;101612.09;;;24.43;55.01
62779;BME280;48821;48.796;2.396;2023-08-12T17:11:50;101606.75;;;24.43;55.19
62779;BME280;48821;48.796;2.396;2023-08-12T17:13:00;101607.47;;;24.45;54.99
62779;BME280;48821;48.796;2.396;2023-08-12T17:14:12;101603.81;;;24.46;55.22
62779;BME280;48821;48.796;2.396;2023-08-12T17:15:25;101616.25;;;24.47;54.87
62779;BME280;48821;48.796;2.396;2023-08-12T17:16:38;101617.00;;;24.49;54.58
62779;BME280;48821;48.796;2.396;2023-08-12T17:17:51;101607.09;;;24.50;54.80
62779;BME280;48821;48.796;2.396;2023-08-12T17:19:02;101616.03;;;24.50;54.94
62779;BME280;48821;48.796;2.396;2023-08-12T17:20:13;101616.03;;;24.50;54.67
62779;BME280;48821;48.796;2.396;2023-08-12T17:21:23;101620.44;;;24.52;54.00
62779;BME280;48821;48.796;2.396;2023-08-12T17:22:34;101617.75;;;24.52;54.06
62779;BME280;48821;48.796;2.396;2023-08-12T17:23:46;101623.13;;;24.52;54.33
62779;BME280;48821;48.796;2.396;2023-08-12T17:25:01;101616.75;;;24.53;54.20
62779;BME280;48821;48.796;2.396;2023-08-12T17:26:15;101625.66;;;24.53;54.11
62779;BME280;48821;48.796;2.396;2023-08-12T17:27:25;101618.47;;;24.54;54.16
62779;BME280;48821;48.796;2.396;2023-08-12T17:28:39;101623.00;;;24.53;53.62
62779;BME280;48821;48.796;2.396;2023-08-12T17:29:53;101618.47;;;24.54;53.69
62779;BME280;48821;48.796;2.396;2023-08-12T17:31:03;101622.13;;;24.53;54.35
62779;BME280;48821;48.796;2.396;2023-08-12T17:32:18;101624.81;;;24.53;54.13
62779;BME280;48821;48.796;2.396;2023-08-12T17:33:28;101623.94;;;24.52;53.41
62779;BME280;48821;48.796;2.396;2023-08-12T17:34:39;101614.06;;;24.53;53.47
62779;BME280;48821;48.796;2.396;2023-08-12T17:35:49;101621.16;;;24.54;53.81
62779;BME280;48821;48.796;2.396;2023-08-12T17:37:00;101617.63;;;24.53;53.14
62779;BME280;48821;48.796;2.396;2023-08-12T17:38:14;101622.03;;;24.54;53.58
62779;BME280;48821;48.796;2.396;2023-08-12T17:39:27;101629.22;;;24.54;53.43
62779;BME280;48821;48.796;2.396;2023-08-12T17:40:40;101614.06;;;24.53;53.06
62779;BME280;48821;48.796;2.396;2023-08-12T17:41:53;101620.28;;;24.53;52.65
62779;BME280;48821;48.796;2.396;2023-08-12T17:43:04;101617.63;;;24.53;52.80
62779;BME280;48821;48.796;2.396;2023-08-12T17:44:15;101620.16;;;24.55;52.93
62779;BME280;48821;48.796;2.396;2023-08-12T17:45:25;101619.34;;;24.54;52.85
62779;BME280;48821;48.796;2.396;2023-08-12T17:46:36;101620.06;;;24.56;52.89
62779;BME280;48821;48.796;2.396;2023-08-12T17:47:55;101620.06;;;24.56;52.88
62779;BME280;48821;48.796;2.396;2023-08-12T17:49:09;101619.19;;;24.56;52.85
62779;BME280;48821;48.796;2.396;2023-08-12T17:50:23;101618.25;;;24.57;52.96
62779;BME280;48821;48.796;2.396;2023-08-12T17:51:33;101619.94;;;24.58;53.39
62779;BME280;48821;48.796;2.396;2023-08-12T17:52:44;101617.38;;;24.56;52.99
62779;BME280;48821;48.796;2.396;2023-08-12T17:53:55;101620.94;;;24.57;52.97
62779;BME280;48821;48.796;2.396;2023-08-12T17:55:06;101626.31;;;24.57;53.08
62779;BME280;48821;48.796;2.396;2023-08-12T17:56:18;101625.44;;;24.56;52.70
62779;BME280;48821;48.796;2.396;2023-08-12T17:57:32;101620.94;;;24.57;52.80
62779;BME280;48821;48.796;2.396;2023-08-12T17:58:45;101622.63;;;24.58;53.07
62779;BME280;48821;48.796;2.396;2023-08-12T17:59:55;101621.66;;;24.59;53.25
62779;BME280;48821;48.796;2.396;2023-08-12T18:01:06;101619.81;;;24.59;52.80
62779;BME280;48821;48.796;2.396;2023-08-12T18:02:17;101624.22;;;24.60;52.78
62779;BME280;48821;48.796;2.396;2023-08-12T18:03:28;101622.38;;;24.61;52.86
62779;BME280;48821;48.796;2.396;2023-08-12T18:04:39;101627.63;;;24.63;52.98
62779;BME280;48821;48.796;2.396;2023-08-12T18:05:52;101622.38;;;24.61;53.17
62779;BME280;48821;48.796;2.396;2023-08-12T18:07:02;101626.91;;;24.60;52.98
62779;BME280;48821;48.796;2.396;2023-08-12T18:08:16;101622.38;;;24.61;53.42
62779;BME280;48821;48.796;2.396;2023-08-12T18:09:27;101629.59;;;24.60;53.04
62779;BME280;48821;48.796;2.396;2023-08-12T18:10:40;101626.91;;;24.60;53.04
62779;BME280;48821;48.796;2.396;2023-08-12T18:11:51;101622.38;;;24.61;52.89
62779;BME280;48821;48.796;2.396;2023-08-12T18:13:02;101629.59;;;24.60;53.48
62779;BME280;48821;48.796;2.396;2023-08-12T18:14:14;101624.22;;;24.60;52.96
62779;BME280;48821;48.796;2.396;2023-08-12T18:15:24;101620.66;;;24.60;52.90
62779;BME280;48821;48.796;2.396;2023-08-12T18:16:35;101620.66;;;24.60;52.53
62779;BME280;48821;48.796;2.396;2023-08-12T18:17:48;101617.13;;;24.59;53.30
62779;BME280;48821;48.796;2.396;2023-08-12T18:19:03;101617.13;;;24.59;52.69
62779;BME280;48821;48.796;2.396;2023-08-12T18:20:14;101628.72;;;24.60;52.76
62779;BME280;48821;48.796;2.396;2023-08-12T18:21:25;101616.28;;;24.59;52.91
62779;BME280;48821;48.796;2.396;2023-08-12T18:22:35;101627.03;;;24.59;53.34
62779;BME280;48821;48.796;2.396;2023-08-12T18:23:46;101626.03;;;24.60;53.11
62779;BME280;48821;48.796;2.396;2023-08-12T18:24:58;101635.94;;;24.59;52.69
62779;BME280;48821;48.796;2.396;2023-08-12T18:26:08;101629.72;;;24.59;53.30
62779;BME280;48821;48.796;2.396;2023-08-12T18:27:19;101635.94;;;24.59;53.15
62779;BME280;48821;48.796;2.396;2023-08-12T18:28:30;101634.22;;;24.58;53.12
62779;BME280;48821;48.796;2.396;2023-08-12T18:29:41;101633.25;;;24.59;53.46
62779;BME280;48821;48.796;2.396;2023-08-12T18:30:57;101635.09;;;24.59;53.28
62779;BME280;48821;48.796;2.396;2023-08-12T18:32:10;101635.09;;;24.59;53.17
62779;BME280;48821;48.796;2.396;2023-08-12T18:33:21;101632.41;;;24.59;53.23
62779;BME280;48821;48.796;2.396;2023-08-12T18:34:32;101635.94;;;24.59;53.50
62779;BME280;48821;48.796;2.396;2023-08-12T18:35:43;101631.53;;;24.58;53.20
62779;BME280;48821;48.796;2.396;2023-08-12T18:36:54;101637.78;;;24.59;53.13
62779;BME280;48821;48.796;2.396;2023-08-12T18:38:04;101631.53;;;24.58;53.35
62779;BME280;48821;48.796;2.396;2023-08-12T18:39:15;101633.25;;;24.59;53.20
62779;BME280;48821;48.796;2.396;2023-08-12T18:40:30;101638.63;;;24.59;53.45
62779;BME280;48821;48.796;2.396;2023-08-12T18:41:45;101632.41;;;24.59;53.55
62779;BME280;48821;48.796;2.396;2023-08-12T18:42:59;101631.53;;;24.58;53.25
62779;BME280;48821;48.796;2.396;2023-08-12T18:44:10;101635.09;;;24.59;53.55
62779;BME280;48821;48.796;2.396;2023-08-12T18:45:23;101633.38;;;24.58;53.31
62779;BME280;48821;48.796;2.396;2023-08-12T18:46:34;101638.75;;;24.58;52.87
62779;BME280;48821;48.796;2.396;2023-08-12T18:47:45;101640.47;;;24.59;53.34
62779;BME280;48821;48.796;2.396;2023-08-12T18:48:57;101636.91;;;24.58;53.11
62779;BME280;48821;48.796;2.396;2023-08-12T18:50:07;101641.44;;;24.58;53.28
62779;BME280;48821;48.796;2.396;2023-08-12T18:51:18;101644.97;;;24.58;53.53
62779;BME280;48821;48.796;2.396;2023-08-12T18:52:30;101644.13;;;24.58;53.10
62779;BME280;48821;48.796;2.396;2023-08-12T18:53:41;101652.06;;;24.59;53.23
62779;BME280;48821;48.796;2.396;2023-08-12T18:54:53;101650.34;;;24.58;52.55
62779;BME280;48821;48.796;2.396;2023-08-12T18:56:04;101653.91;;;24.59;53.08
62779;BME280;48821;48.796;2.396;2023-08-12T18:57:14;101652.91;;;24.60;52.97
62779;BME280;48821;48.796;2.396;2023-08-12T18:58:25;101655.59;;;24.60;53.44
62779;BME280;48821;48.796;2.396;2023-08-12T18:59:36;101639.47;;;24.60;52.63
62779;BME280;48821;48.796;2.396;2023-08-12T19:00:47;101648.41;;;24.60;52.93
62779;BME280;48821;48.796;2.396;2023-08-12T19:02:00;101645.84;;;24.59;53.25
62779;BME280;48821;48.796;2.396;2023-08-12T19:03:13;101640.47;;;24.59;52.44
62779;BME280;48821;48.796;2.396;2023-08-12T19:04:24;101645.84;;;24.59;52.62
62779;BME280;48821;48.796;2.396;2023-08-12T19:05:34;101643.16;;;24.59;52.23
62779;BME280;48821;48.796;2.396;2023-08-12T19:06:45;101647.53;;;24.60;52.88
62779;BME280;48821;48.796;2.396;2023-08-12T19:07:56;101644.97;;;24.58;52.87
62779;BME280;48821;48.796;2.396;2023-08-12T19:09:07;101655.59;;;24.60;52.88
62779;BME280;48821;48.796;2.396;2023-08-12T19:10:19;101650.22;;;24.60;52.75
62779;BME280;48821;48.796;2.396;2023-08-12T19:11:29;101651.22;;;24.59;52.60
62779;BME280;48821;48.796;2.396;2023-08-12T19:12:41;101648.41;;;24.60;52.56
62779;BME280;48821;48.796;2.396;2023-08-12T19:13:54;101647.53;;;24.60;52.21
62779;BME280;48821;48.796;2.396;2023-08-12T19:15:05;101643.88;;;24.61;52.28
62779;BME280;48821;48.796;2.396;2023-08-12T19:16:19;101644.75;;;24.61;52.21
62779;BME280;48821;48.796;2.396;2023-08-12T19:17:29;101647.44;;;24.61;52.33
62779;BME280;48821;48.796;2.396;2023-08-12T19:18:40;101657.31;;;24.61;51.97
62779;BME280;48821;48.796;2.396;2023-08-12T19:19:50;101649.25;;;24.61;51.95
62779;BME280;48821;48.796;2.396;2023-08-12T19:21:01;101654.63;;;24.61;52.31
62779;BME280;48821;48.796;2.396;2023-08-12T19:22:13;101645.56;;;24.62;52.01
62779;BME280;48821;48.796;2.396;2023-08-12T19:23:24;101645.56;;;24.62;52.57
62779;BME280;48821;48.796;2.396;2023-08-12T19:24:36;101646.44;;;24.63;51.78
62779;BME280;48821;48.796;2.396;2023-08-12T19:25:47;101651.81;;;24.63;51.63
62779;BME280;48821;48.796;2.396;2023-08-12T19:26:58;101640.19;;;24.62;51.97
62779;BME280;48821;48.796;2.396;2023-08-12T19:28:11;101644.75;;;24.61;51.45
62779;BME280;48821;48.796;2.396;2023-08-12T19:29:24;101647.28;;;24.63;51.57
62779;BME280;48821;48.796;2.396;2023-08-12T19:30:37;101645.56;;;24.62;51.65
62779;BME280;48821;48.796;2.396;2023-08-12T19:31:48;101652.66;;;24.63;51.72
62779;BME280;48821;48.796;2.396;2023-08-12T19:32:59;101656.31;;;24.62;51.65
62779;BME280;48821;48.796;2.396;2023-08-12T19:34:11;101655.34;;;24.63;51.75
62779;BME280;48821;48.796;2.396;2023-08-12T19:35:21;101656.31;;;24.62;51.69
62779;BME280;48821;48.796;2.396;2023-08-12T19:36:32;101657.19;;;24.63;51.56
62779;BME280;48821;48.796;2.396;2023-08-12T19:37:44;101655.34;;;24.63;51.82
62779;BME280;48821;48.796;2.396;2023-08-12T19:38:54;101663.41;;;24.63;51.48
62779;BME280;48821;48.796;2.396;2023-08-12T19:40:06;101667.94;;;24.63;51.45
62779;BME280;48821;48.796;2.396;2023-08-12T19:41:18;101673.31;;;24.63;51.18
62779;BME280;48821;48.796;2.396;2023-08-12T19:42:28;101676.84;;;24.63;51.55
62779;BME280;48821;48.796;2.396;2023-08-12T19:43:40;101674.16;;;24.63;51.64
62779;BME280;48821;48.796;2.396;2023-08-12T19:44:51;101673.31;;;24.63;51.33
62779;BME280;48821;48.796;2.396;2023-08-12T19:46:02;101678.69;;;24.63;51.32
62779;BME280;48821;48.796;2.396;2023-08-12T19:47:13;101680.50;;;24.62;51.37
62779;BME280;48821;48.796;2.396;2023-08-12T19:48:24;101682.22;;;24.63;51.85
62779;BME280;48821;48.796;2.396;2023-08-12T19:49:34;101680.50;;;24.62;51.57
62779;BME280;48821;48.796;2.396;2023-08-12T19:50:45;101688.56;;;24.62;51.60
62779;BME280;48821;48.796;2.396;2023-08-12T19:51:57;101689.56;;;24.61;51.63
62779;BME280;48821;48.796;2.396;2023-08-12T19:53:09;101692.25;;;24.61;51.57
62779;BME280;48821;48.796;2.396;2023-08-12T19:54:19;101683.31;;;24.60;51.84
62779;BME280;48821;48.796;2.396;2023-08-12T19:55:30;101688.69;;;24.60;51.28
62779;BME280;48821;48.796;2.396;2023-08-12T19:56:41;101693.22;;;24.60;51.53
62779;BME280;48821;48.796;2.396;2023-08-12T19:57:52;101695.06;;;24.59;51.35
62779;BME280;48821;48.796;2.396;2023-08-12T19:59:03;101697.84;;;24.58;51.30
62779;BME280;48821;48.796;2.396;2023-08-12T20:00:14;101705.91;;;24.58;51.52
62779;BME280;48821;48.796;2.396;2023-08-12T20:01:25;101705.19;;;24.56;51.75
62779;BME280;48821;48.796;2.396;2023-08-12T20:02:36;101702.50;;;24.56;51.94
62779;BME280;48821;48.796;2.396;2023-08-12T20:03:47;101707.16;;;24.54;51.62
62779;BME280;48821;48.796;2.396;2023-08-12T20:04:58;101700.03;;;24.53;51.64
62779;BME280;48821;48.796;2.396;2023-08-12T20:06:11;101700.91;;;24.53;51.61
62779;BME280;48821;48.796;2.396;2023-08-12T20:07:22;101708.97;;;24.53;51.76
62779;BME280;48821;48.796;2.396;2023-08-12T20:08:33;101709.94;;;24.52;51.76
62779;BME280;48821;48.796;2.396;2023-08-12T20:09:44;101710.06;;;24.50;51.61
62779;BME280;48821;48.796;2.396;2023-08-12T20:10:55;101707.38;;;24.50;51.51
62779;BME280;48821;48.796;2.396;2023-08-12T20:12:05;101705.69;;;24.49;51.70
62779;BME280;48821;48.796;2.396;2023-08-12T20:13:16;101712.97;;;24.47;51.42
62779;BME280;48821;48.796;2.396;2023-08-12T20:14:27;101714.94;;;24.45;51.46
62779;BME280;48821;48.796;2.396;2023-08-12T20:15:38;101715.06;;;24.44;51.71
62779;BME280;48821;48.796;2.396;2023-08-12T20:16:49;101714.31;;;24.42;51.54
62779;BME280;48821;48.796;2.396;2023-08-12T20:18:00;101719.69;;;24.42;51.94
62779;BME280;48821;48.796;2.396;2023-08-12T20:19:11;101716.28;;;24.39;51.59
62779;BME280;48821;48.796;2.396;2023-08-12T20:20:21;101710.03;;;24.39;51.61
62779;BME280;48821;48.796;2.396;2023-08-12T20:21:32;101713.69;;;24.38;51.85
62779;BME280;48821;48.796;2.396;2023-08-12T20:22:45;101707.47;;;24.37;51.68
62779;BME280;48821;48.796;2.396;2023-08-12T20:23:59;101710.28;;;24.36;51.96
62779;BME280;48821;48.796;2.396;2023-08-12T20:25:09;101713.91;;;24.35;51.75
62779;BME280;48821;48.796;2.396;2023-08-12T20:26:20;101717.59;;;24.34;51.90
62779;BME280;48821;48.796;2.396;2023-08-12T20:27:32;101723.84;;;24.34;51.87
62779;BME280;48821;48.796;2.396;2023-08-12T20:28:43;101735.53;;;24.33;52.30
62779;BME280;48821;48.796;2.396;2023-08-12T20:29:54;101735.66;;;24.32;51.76
62779;BME280;48821;48.796;2.396;2023-08-12T20:31:05;101732.13;;;24.31;52.04
62779;BME280;48821;48.796;2.396;2023-08-12T20:32:16;101740.19;;;24.31;51.99
62779;BME280;48821;48.796;2.396;2023-08-12T20:33:26;101733.94;;;24.31;51.53
62779;BME280;48821;48.796;2.396;2023-08-12T20:34:37;101728.56;;;24.31;51.71
62779;BME280;48821;48.796;2.396;2023-08-12T20:35:48;101720.50;;;24.31;51.65
62779;BME280;48821;48.796;2.396;2023-08-12T20:36:59;101718.81;;;24.30;51.47
62779;BME280;48821;48.796;2.396;2023-08-12T20:38:10;101710.75;;;24.30;51.49
62779;BME280;48821;48.796;2.396;2023-08-12T20:39:21;101712.47;;;24.31;51.36
62779;BME280;48821;48.796;2.396;2023-08-12T20:40:32;101716.00;;;24.31;51.53
62779;BME280;48821;48.796;2.396;2023-08-12T20:41:42;101703.53;;;24.30;51.57
62779;BME280;48821;48.796;2.396;2023-08-12T20:42:53;101701.72;;;24.31;51.46
62779;BME280;48821;48.796;2.396;2023-08-12T20:44:04;101708.91;;;24.30;51.70
62779;BME280;48821;48.796;2.396;2023-08-12T20:45:15;101709.91;;;24.29;51.47
62779;BME280;48821;48.796;2.396;2023-08-12T20:46:26;101700.97;;;24.28;51.27
62779;BME280;48821;48.796;2.396;2023-08-12T20:47:37;101702.81;;;24.28;51.05
62779;BME280;48821;48.796;2.396;2023-08-12T20:48:48;101708.19;;;24.28;51.02
62779;BME280;48821;48.796;2.396;2023-08-12T20:49:58;101702.81;;;24.28;50.93
62779;BME280;48821;48.796;2.396;2023-08-12T20:51:09;101692.91;;;24.28;50.68
62779;BME280;48821;48.796;2.396;2023-08-12T20:52:20;101697.44;;;24.28;51.07
62779;BME280;48821;48.796;2.396;2023-08-12T20:53:31;101700.97;;;24.28;51.29
62779;BME280;48821;48.796;2.396;2023-08-12T20:54:42;101705.38;;;24.30;51.08
62779;BME280;48821;48.796;2.396;2023-08-12T20:55:53;101700.97;;;24.28;51.19
62779;BME280;48821;48.796;2.396;2023-08-12T20:57:04;101708.19;;;24.28;50.76
62779;BME280;48821;48.796;2.396;2023-08-12T20:58:15;101705.50;;;24.28;50.86
62779;BME280;48821;48.796;2.396;2023-08-12T20:59:26;101702.81;;;24.28;50.76
62779;BME280;48821;48.796;2.396;2023-08-12T21:00:38;101708.19;;;24.28;50.96
62779;BME280;48821;48.796;2.396;2023-08-12T21:01:49;101704.63;;;24.27;50.85
62779;BME280;48821;48.796;2.396;2023-08-12T21:03:00;101714.41;;;24.28;50.93
62779;BME280;48821;48.796;2.396;2023-08-12T21:04:10;101712.69;;;24.27;50.70
62779;BME280;48821;48.796;2.396;2023-08-12T21:05:21;101710.00;;;24.27;50.40
62779;BME280;48821;48.796;2.396;2023-08-12T21:06:32;101706.47;;;24.27;50.88
62779;BME280;48821;48.796;2.396;2023-08-12T21:07:43;101702.94;;;24.26;50.47
62779;BME280;48821;48.796;2.396;2023-08-12T21:08:54;101713.69;;;24.26;50.11
62779;BME280;48821;48.796;2.396;2023-08-12T21:10:05;101714.63;;;24.25;50.36
62779;BME280;48821;48.796;2.396;2023-08-12T21:11:16;101719.13;;;24.25;50.59
62779;BME280;48821;48.796;2.396;2023-08-12T21:12:27;101713.75;;;24.25;50.32
62779;BME280;48821;48.796;2.396;2023-08-12T21:13:37;101715.59;;;24.24;50.56
62779;BME280;48821;48.796;2.396;2023-08-12T21:14:48;101713.88;;;24.23;50.95
62779;BME280;48821;48.796;2.396;2023-08-12T21:15:59;101716.56;;;24.23;50.58
62779;BME280;48821;48.796;2.396;2023-08-12T21:17:10;101719.25;;;24.23;50.92
62779;BME280;48821;48.796;2.396;2023-08-12T21:18:21;101715.69;;;24.23;50.38
62779;BME280;48821;48.796;2.396;2023-08-12T21:19:32;101707.63;;;24.23;50.73
62779;BME280;48821;48.796;2.396;2023-08-12T21:20:43;101709.50;;;24.22;50.17
62779;BME280;48821;48.796;2.396;2023-08-12T21:21:54;101711.19;;;24.23;50.43
62779;BME280;48821;48.796;2.396;2023-08-12T21:23:05;101711.31;;;24.22;50.12
62779;BME280;48821;48.796;2.396;2023-08-12T21:24:16;101710.44;;;24.21;50.50
62779;BME280;48821;48.796;2.396;2023-08-12T21:25:27;101713.13;;;24.21;50.24
62779;BME280;48821;48.796;2.396;2023-08-12T21:26:37;101712.28;;;24.21;50.46
62779;BME280;48821;48.796;2.396;2023-08-12T21:27:48;101713.13;;;24.21;50.84
62779;BME280;48821;48.796;2.396;2023-08-12T21:29:00;101713.13;;;24.21;50.42
62779;BME280;48821;48.796;2.396;2023-08-12T21:30:11;101711.41;;;24.20;50.62
62779;BME280;48821;48.796;2.396;2023-08-12T21:31:22;101712.41;;;24.19;49.95
62779;BME280;48821;48.796;2.396;2023-08-12T21:32:33;101716.03;;;24.18;50.78
62779;BME280;48821;48.796;2.396;2023-08-12T21:33:46;101709.81;;;24.17;50.93
62779;BME280;48821;48.796;2.396;2023-08-12T21:35:00;101714.34;;;24.17;50.80
62779;BME280;48821;48.796;2.396;2023-08-12T21:36:10;101716.31;;;24.15;50.80
62779;BME280;48821;48.796;2.396;2023-08-12T21:37:21;101714.44;;;24.15;51.27
62779;BME280;48821;48.796;2.396;2023-08-12T21:38:33;101705.56;;;24.15;51.04
62779;BME280;48821;48.796;2.396;2023-08-12T21:39:43;101710.81;;;24.16;50.92
62779;BME280;48821;48.796;2.396;2023-08-12T21:40:54;101711.03;;;24.13;51.00
62779;BME280;48821;48.796;2.396;2023-08-12T21:42:05;101709.22;;;24.14;50.96
62779;BME280;48821;48.796;2.396;2023-08-12T21:43:17;101711.03;;;24.13;51.30
62779;BME280;48821;48.796;2.396;2023-08-12T21:44:28;101707.47;;;24.13;51.39
62779;BME280;48821;48.796;2.396;2023-08-12T21:45:38;101705.66;;;24.13;51.46
62779;BME280;48821;48.796;2.396;2023-08-12T21:46:49;101709.22;;;24.14;51.75
62779;BME280;48821;48.796;2.396;2023-08-12T21:48:01;101706.53;;;24.14;51.28
62779;BME280;48821;48.796;2.396;2023-08-12T21:49:12;101710.16;;;24.13;51.62
62779;BME280;48821;48.796;2.396;2023-08-12T21:50:22;101717.50;;;24.11;51.80
62779;BME280;48821;48.796;2.396;2023-08-12T21:51:34;101716.63;;;24.10;51.57
62779;BME280;48821;48.796;2.396;2023-08-12T21:52:45;101721.16;;;24.10;51.63
62779;BME280;48821;48.796;2.396;2023-08-12T21:53:56;101714.81;;;24.11;51.68
62779;BME280;48821;48.796;2.396;2023-08-12T21:55:07;101713.94;;;24.10;51.47
62779;BME280;48821;48.796;2.396;2023-08-12T21:56:20;101713.94;;;24.10;51.72
62779;BME280;48821;48.796;2.396;2023-08-12T21:57:30;101704.19;;;24.09;51.30
62779;BME280;48821;48.796;2.396;2023-08-12T21:58:42;101708.69;;;24.09;51.84
62779;BME280;48821;48.796;2.396;2023-08-12T21:59:52;101706.00;;;24.09;51.93
62779;BME280;48821;48.796;2.396;2023-08-12T22:01:03;101711.38;;;24.09;51.67
62779;BME280;48821;48.796;2.396;2023-08-12T22:02:27;101708.69;;;24.09;52.09
62779;BME280;48821;48.796;2.396;2023-08-12T22:03:41;101715.88;;;24.08;52.19
62779;BME280;48821;48.796;2.396;2023-08-12T22:04:51;101713.22;;;24.08;51.88
62779;BME280;48821;48.796;2.396;2023-08-12T22:06:05;101714.28;;;24.05;51.90
62779;BME280;48821;48.796;2.396;2023-08-12T22:07:15;101711.97;;;24.01;52.01
62779;BME280;48821;48.796;2.396;2023-08-12T22:08:26;101715.72;;;23.98;50.88
62779;BME280;48821;48.796;2.396;2023-08-12T22:09:37;101716.81;;;23.96;51.13
62779;BME280;48821;48.796;2.396;2023-08-12T22:10:48;101709.84;;;23.93;52.37
62779;BME280;48821;48.796;2.396;2023-08-12T22:11:59;101709.00;;;23.92;52.27
62779;BME280;48821;48.796;2.396;2023-08-12T22:13:09;101704.47;;;23.93;51.99
62779;BME280;48821;48.796;2.396;2023-08-12T22:14:20;101702.78;;;23.92;52.21
62779;BME280;48821;48.796;2.396;2023-08-12T22:15:32;101709.13;;;23.91;51.90
62779;BME280;48821;48.796;2.396;2023-08-12T22:16:45;101706.56;;;23.89;52.68
62779;BME280;48821;48.796;2.396;2023-08-12T22:17:56;101700.31;;;23.89;52.61
62779;BME280;48821;48.796;2.396;2023-08-12T22:19:07;101703.75;;;23.91;52.30
62779;BME280;48821;48.796;2.396;2023-08-12T22:20:18;101702.78;;;23.92;52.63
62779;BME280;48821;48.796;2.396;2023-08-12T22:21:29;101703.66;;;23.92;52.68
62779;BME280;48821;48.796;2.396;2023-08-12T22:22:43;101705.47;;;23.92;52.28
62779;BME280;48821;48.796;2.396;2023-08-12T22:23:53;101701.06;;;23.91;52.28
62779;BME280;48821;48.796;2.396;2023-08-12T22:25:04;101703.75;;;23.91;51.98
62779;BME280;48821;48.796;2.396;2023-08-12T22:26:15;101704.72;;;23.90;52.33
62779;BME280;48821;48.796;2.396;2023-08-12T22:27:29;101703.13;;;23.87;52.53
62779;BME280;48821;48.796;2.396;2023-08-12T22:28:42;101703.22;;;23.86;52.43
62779;BME280;48821;48.796;2.396;2023-08-12T22:29:52;101708.72;;;23.84;52.25
62779;BME280;48821;48.796;2.396;2023-08-12T22:31:03;101710.53;;;23.83;52.42
62779;BME280;48821;48.796;2.396;2023-08-12T22:32:16;101708.22;;;23.79;52.37
62779;BME280;48821;48.796;2.396;2023-08-12T22:33:26;101702.97;;;23.77;52.60